Time;durP1;ratioP1;P1;durP2;ratioP2;P2;SDS_P1;SDS_P2;PMS_P1;PMS_P2;Temp;Humidity;BMP_temperature;BMP_pressure;BME280_temperature;BME280_humidity;BME280_pressure;Samples;Min_cycle;Max_cycle;Signal;HPM_P1;HPM_P2
2022/02/09 00:09:59;;;;;;;4.10;1.30;;;;;;;17.16;52.58;102595.06;4986776;28;20069;-79
2022/02/09 00:12:32;;;;;;;3.05;1.10;;;;;;;17.15;52.75;102585.50;4970513;28;20033;-78
2022/02/09 01:56:30;;;;;;;2.78;1.23;;;;;;;17.08;52.30;102539.41;4998184;28;20038;-78
2022/02/09 01:58:56;;;;;;;3.63;1.10;;;;;;;17.08;52.38;102538.53;4980046;28;20041;-79
2022/02/09 02:01:23;;;;;;;3.53;1.30;;;;;;;17.08;52.43;102542.00;4996397;28;20097;-78
2022/02/09 02:03:48;;;;;;;2.65;1.10;;;;;;;17.08;52.15;102535.94;4964190;28;20188;-78
2022/02/09 02:06:15;;;;;;;2.55;1.08;;;;;;;17.09;52.35;102537.66;4979632;28;20026;-79
2022/02/09 02:08:41;;;;;;;3.15;1.10;;;;;;;17.09;52.49;102529.88;4963609;28;20030;-79
2022/02/09 02:11:24;;;;;;;3.25;1.13;;;;;;;17.08;52.40;102526.41;4979666;28;20030;-78
2022/02/09 02:14:11;;;;;;;2.70;1.13;;;;;;;17.08;52.37;102520.31;4965510;28;20026;-78
2022/02/09 02:16:43;;;;;;;3.28;1.00;;;;;;;17.07;52.27;102519.41;4979397;28;20027;-79
2022/02/09 02:19:20;;;;;;;1.83;0.93;;;;;;;17.07;52.35;102522.03;4964351;28;20456;-79
2022/02/09 02:22:25;;;;;;;2.15;1.00;;;;;;;17.07;52.37;102524.63;4964421;28;20037;-78
2022/02/09 02:32:54;;;;;;;3.50;1.13;;;;;;;17.08;52.20;102517.72;4998404;28;20031;-78
2022/02/09 02:36:30;;;;;;;2.22;0.93;;;;;;;17.06;52.24;102517.69;4981291;28;20392;-79
2022/02/09 03:12:44;;;;;;;2.33;0.98;;;;;;;17.03;52.33;102491.63;4996173;28;20392;-79
2022/02/09 03:17:41;;;;;;;2.38;1.05;;;;;;;17.02;52.39;102475.13;4997835;28;20022;-79
2022/02/09 03:20:22;;;;;;;3.45;1.00;;;;;;;17.03;52.50;102473.44;4978543;28;20034;-79
2022/02/09 03:22:54;;;;;;;2.50;1.08;;;;;;;17.03;52.22;102474.28;4995959;28;20050;-79
2022/02/09 03:44:34;;;;;;;;;;;;;;;17.03;52.36;102470.81;4981684;28;19948;-78
2022/02/09 03:57:03;;;;;;;;;;;;;;;17.03;52.37;102448.28;4997040;28;20407;-78
2022/02/09 03:59:31;;;;;;;;;;;;;;;17.03;52.58;102463.88;4994128;28;20381;-78
2022/02/09 04:01:56;;;;;;;;;;;;;;;17.03;52.44;102463.88;4965762;28;20008;-78
2022/02/09 04:04:21;;;;;;;;;;;;;;;17.02;52.43;102459.50;4969069;28;19953;-79
2022/02/09 04:06:50;;;;;;;;;;;;;;;17.02;52.29;102459.50;4984537;28;19914;-78
2022/02/09 04:09:18;;;;;;;;;;;;;;;17.03;52.24;102455.22;5000321;28;19909;-78
2022/02/09 04:38:17;;;;;;;;;;;;;;;16.99;52.55;102456.88;4989107;28;20398;-79
2022/02/09 04:43:50;;;;;;;;;;;;;;;17.01;52.44;102451.72;5014186;28;19959;-80
2022/02/09 04:56:48;;;;;;;;;;;;;;;16.99;52.50;102441.28;5003445;28;19998;-78
2022/02/09 04:59:23;;;;;;;;;;;;;;;17.00;52.44;102436.94;4969131;28;20279;-78
2022/02/09 05:18:39;;;;;;;;;;;;;;;16.98;52.35;102441.22;5001037;28;19936;-77
2022/02/09 05:28:31;;;;;;;;;;;;;;;16.97;52.25;102440.38;4985167;28;19921;-78
2022/02/09 05:30:57;;;;;;;;;;;;;;;16.97;52.21;102435.16;4983880;28;19914;-78
2022/02/09 05:33:22;;;;;;;;;;;;;;;16.98;52.36;102426.50;4984179;28;19928;-80
2022/02/09 05:35:51;;;;;;;;;;;;;;;16.98;52.26;102433.44;4984134;28;19914;-80
2022/02/09 05:38:18;;;;;;;;;;;;;;;16.97;52.29;102426.50;5008592;28;19933;-82
2022/02/09 05:40:44;;;;;;;;;;;;;;;16.97;52.38;102423.88;5011398;28;20373;-82
2022/02/09 05:43:11;;;;;;;;;;;;;;;16.97;52.31;102419.56;5006957;28;19945;-82
2022/02/09 05:45:59;;;;;;;;;;;;;;;16.97;52.31;102421.28;4989010;28;19932;-81
2022/02/09 05:51:05;;;;;;;;;;;;;;;16.96;52.30;102406.53;4986490;28;19929;-81
2022/02/09 05:56:38;;;;;;;;;;;;;;;16.96;52.31;102411.72;4998803;28;19913;-79
2022/02/09 06:01:36;;;;;;;;;;;;;;;16.97;52.53;102414.34;5004685;28;19917;-79
2022/02/09 06:04:02;;;;;;;;;;;;;;;17.01;52.69;102407.50;4983257;28;20361;-79
2022/02/09 06:06:27;;;;;;;;;;;;;;;17.01;52.50;102410.97;4984343;28;19910;-79
2022/02/09 06:08:52;;;;;;;;;;;;;;;17.01;52.56;102420.50;4984955;28;19968;-79
2022/02/09 06:19:49;;;;;;;;;;;;;;;17.09;53.20;102418.03;4991571;28;20009;-79
2022/02/09 06:22:14;;;;;;;;;;;;;;;17.11;52.89;102414.59;4983515;28;19909;-79
2022/02/09 06:24:41;;;;;;;;;;;;;;;17.12;52.97;102416.34;4981895;28;19909;-81
2022/02/09 06:27:07;;;;;;;;;;;;;;;17.13;53.02;102420.69;4980887;28;20368;-81
2022/02/09 06:29:32;;;;;;;;;;;;;;;17.13;53.28;102412.91;4980209;28;19917;-81
2022/02/09 06:32:06;;;;;;;;;;;;;;;17.15;53.33;102405.13;4980371;28;19909;-79
2022/02/09 06:34:31;;;;;;;;;;;;;;;17.16;53.26;102410.38;4997499;28;19949;-80
2022/02/09 06:37:00;;;;;;;;;;;;;;;17.17;53.44;102398.22;4966220;28;19914;-82
2022/02/09 06:39:26;;;;;;;;;;;;;;;17.17;53.32;102401.69;4987018;28;20000;-81
2022/02/09 06:41:51;;;;;;;;;;;;;;;17.18;53.35;102410.38;4979660;28;19909;-81
2022/02/09 06:44:19;;;;;;;;;;;;;;;17.18;53.47;102403.47;4979338;28;20401;-81
2022/02/09 06:46:44;;;;;;;;;;;;;;;17.18;53.69;102406.06;4979014;28;19977;-80
2022/02/09 06:49:09;;;;;;;;;;;;;;;17.19;53.68;102399.13;4961961;28;20001;-80
2022/02/09 06:51:37;;;;;;;;;;;;;;;17.18;53.71;102395.66;4963595;28;19922;-81
2022/02/09 06:54:07;;;;;;;;;;;;;;;17.19;53.71;102397.41;4996068;28;20372;-80
2022/02/09 06:59:21;;;;;;;;;;;;;;;17.20;53.92;102399.16;4981733;28;19921;-81
2022/02/09 07:01:46;;;;;;;;;;;;;;;17.21;53.98;102398.31;4979712;28;19909;-80
2022/02/09 07:04:12;;;;;;;;;;;;;;;17.21;54.03;102400.91;4978916;28;19913;-80
2022/02/09 07:06:37;;;;;;;;;;;;;;;17.22;53.89;102405.28;4978898;28;19917;-80
2022/02/09 07:09:02;;;;;;;;;;;;;;;17.22;53.97;102402.66;4979861;28;20255;-80
2022/02/09 07:11:27;;;;;;;;;;;;;;;17.22;54.03;102404.38;4979174;28;20391;-80
2022/02/09 07:13:53;;;;;;;;;;;;;;;17.24;54.15;102410.47;4978757;28;20004;-80
2022/02/09 07:16:20;;;;;;;;;;;;;;;17.25;53.93;102414.84;4963169;28;20324;-80
2022/02/09 07:18:47;;;;;;;;;;;;;;;17.25;53.82;102407.03;4979574;28;20419;-80
2022/02/09 07:21:17;;;;;;;;;;;;;;;17.25;53.92;102417.44;4979319;28;20387;-80
2022/02/09 07:23:49;;;;;;;;;;;;;;;17.25;53.94;102422.66;4996660;28;19965;-80
2022/02/09 07:26:19;;;;;;;;;;;;;;;17.26;54.00;102419.19;4963655;28;19913;-80
2022/02/09 07:28:45;;;;;;;;;;;;;;;17.26;53.93;102413.97;4981089;28;19916;-80
2022/02/09 07:31:11;;;;;;;;;;;;;;;17.26;53.77;102408.78;4965131;28;19972;-80
2022/02/09 07:33:37;;;;;;;;;;;;;;;17.26;53.98;102416.59;4980841;28;20284;-80
2022/02/09 07:36:03;;;;;;;;;;;;;;;17.26;53.93;102417.44;4980982;28;19948;-80
2022/02/09 07:38:29;;;;;;;;;;;;;;;17.26;53.91;102414.84;4997773;28;19956;-79
2022/02/09 07:40:58;;;;;;;;;;;;;;;17.27;53.78;102418.34;4981003;28;19910;-84
2022/02/09 07:43:36;;;;;;;;;;;;;;;17.27;53.85;102413.16;4967389;28;19917;-80
2022/02/09 07:48:51;;;;;;;;;;;;;;;17.29;54.17;102414.06;4997274;28;19914;-80
2022/02/09 07:53:50;;;;;;;;;;;;;;;17.30;54.13;102407.13;4998448;28;19917;-81
2022/02/09 07:56:15;;;;;;;;;;;;;;;17.29;53.88;102411.44;4989382;28;19936;-80
2022/02/09 07:58:41;;;;;;;;;;;;;;;17.30;54.17;102413.19;5007607;28;19910;-81
2022/02/09 08:01:06;;;;;;;;;;;;;;;17.31;54.01;102412.34;4971540;28;19956;-80
2022/02/09 08:03:31;;;;;;;;;;;;;;;17.32;53.98;102418.44;4987275;28;19920;-81
2022/02/09 08:05:57;;;;;;;;;;;;;;;17.33;54.12;102414.97;4979311;28;19921;-81
2022/02/09 08:08:28;;;;;;;;;;;;;;;17.33;53.98;102415.81;4994848;28;19957;-81
2022/02/09 08:10:57;;;;;;;;;;;;;;;17.34;53.96;102412.41;4991344;28;19917;-80
2022/02/09 08:25:35;;;;;;;;;;;;;;;17.35;54.04;102418.47;4989320;28;19964;-81
2022/02/09 08:27:35;;;;;;;;;;;;;;;17.36;54.07;102422.84;4986488;28;20315;-81
2022/02/09 08:34:51;;;;;;;;;;;;;;;17.40;53.64;102412.50;5003354;28;19909;-81
2022/02/09 08:37:17;;;;;;;;;;;;;;;17.42;53.58;102417.72;4984917;28;19910;-80
2022/02/09 08:39:42;;;;;;;;;;;;;;;17.42;53.72;102421.22;4984556;28;19920;-80
2022/02/09 08:42:08;;;;;;;;;;;;;;;17.42;53.59;102408.19;4984798;28;20304;-81
2022/02/09 08:44:33;;;;;;;;;;;;;;;17.41;53.79;102409.03;4987549;28;19913;-80
2022/02/09 08:46:58;;;;;;;;;;;;;;;17.41;53.92;102410.75;4967950;28;19914;-80
2022/02/09 08:49:26;;;;;;;;;;;;;;;17.45;53.69;102408.22;4967097;28;19936;-80
2022/02/09 08:51:51;;;;;;;;;;;;;;;17.47;53.76;102413.47;4999687;28;20529;-80
2022/02/09 08:54:17;;;;;;;;;;;;;;;17.48;53.77;102415.22;4966280;28;19972;-79
2022/02/09 08:56:42;;;;;;;;;;;;;;;17.47;53.47;102413.47;4984174;28;19916;-81
2022/02/09 08:59:08;;;;;;;;;;;;;;;17.46;53.74;102420.41;4967390;28;19913;-80
2022/02/09 09:01:46;;;;;;;;;;;;;;;17.48;53.68;102417.81;4983294;28;19955;-80
2022/02/09 09:04:18;;;;;;;;;;;;;;;17.48;53.57;102423.91;4986059;28;20249;-81
2022/02/09 09:06:46;;;;;;;;;;;;;;;17.50;53.63;102416.09;4987329;28;19956;-80
2022/02/09 09:09:25;;;;;;;;;;;;;;;17.51;53.67;102414.38;4984305;28;19921;-80
2022/02/09 10:31:05;;;;;;;;;;;;;;;17.74;53.14;102443.38;4998699;28;19955;-81
2022/02/09 10:34:03;;;;;;;;;;;;;;;17.76;53.00;102441.69;5000513;28;19916;-81
2022/02/09 10:36:28;;;;;;;;;;;;;;;17.77;52.92;102451.22;5000967;28;19967;-82
2022/02/09 10:39:03;;;;;;;;;;;;;;;17.77;53.07;102454.72;4982145;28;20381;-81
2022/02/09 10:41:35;;;;;;;;;;;;;;;17.79;52.90;102453.03;4986340;28;20287;-82
2022/02/09 10:44:04;;;;;;;;;;;;;;;17.81;52.93;102448.72;4988984;28;19916;-81
2022/02/09 10:46:30;;;;;;;;;;;;;;;17.83;52.93;102453.97;4986830;28;20288;-83
2022/02/09 10:48:58;;;;;;;;;;;;;;;17.85;53.11;102450.53;4969067;28;19920;-83
2022/02/09 10:51:34;;;;;;;;;;;;;;;17.88;52.75;102447.13;4970025;28;19949;-84
2022/02/09 10:54:04;;;;;;;;;;;;;;;17.89;52.80;102448.84;4985980;28;20319;-83
2022/02/09 10:56:30;;;;;;;;;;;;;;;17.91;52.88;102454.09;5002624;28;19977;-82
2022/02/09 10:59:00;;;;;;;;;;;;;;;17.89;52.80;102443.66;4987951;28;19944;-83
2022/02/09 11:01:25;;;;;;;;;;;;;;;17.92;53.03;102451.53;5005712;28;20045;-82
2022/02/09 11:03:52;;;;;;;;;;;;;;;17.93;52.73;102450.66;4988037;28;19917;-84
2022/02/09 11:06:18;;;;;;;;;;;;;;;17.94;53.08;102454.13;4990221;28;19973;-84
2022/02/09 11:08:43;;;;;;;;;;;;;;;17.93;52.80;102468.03;5009633;28;19914;-84
2022/02/09 11:11:09;;;;;;;;;;;;;;;17.91;52.69;102461.91;4991075;28;20427;-83
2022/02/09 11:13:34;;;;;;;;;;;;;;;17.89;52.91;102469.69;4974282;28;19917;-83
2022/02/09 11:16:01;;;;;;;;;;;;;;;17.88;52.83;102470.56;4975424;28;19914;-83
2022/02/09 11:18:27;;;;;;;;;;;;;;;17.85;53.04;102473.09;4973659;28;19985;-83
2022/02/09 11:21:03;;;;;;;;;;;;;;;17.84;52.84;102474.84;4986509;28;20005;-83
2022/02/09 11:23:58;;;;;;;;;;;;;;;17.84;52.86;102464.41;5008980;28;19910;-83
2022/02/09 11:26:26;;;;;;;;;;;;;;;17.83;53.00;102473.09;4991851;28;20316;-83
2022/02/09 11:29:16;;;;;;;;;;;;;;;17.81;53.00;102472.16;5006395;28;19910;-83
2022/02/09 11:32:00;;;;;;;;;;;;;;;17.80;52.84;102470.41;4984945;28;19910;-83
2022/02/09 11:34:25;;;;;;;;;;;;;;;17.79;52.87;102467.75;4984724;28;19920;-82
2022/02/09 11:37:02;;;;;;;;;;;;;;;17.78;52.96;102459.06;4985917;28;20376;-83
2022/02/09 11:39:45;;;;;;;;;;;;;;;17.78;52.89;102453.88;4984881;28;20000;-82
2022/02/09 11:42:24;;;;;;;;;;;;;;;17.79;52.83;102445.22;4985265;28;19910;-82
2022/02/09 11:47:44;;;;;;;;;;;;;;;17.82;52.85;102457.44;4985329;28;19914;-82
2022/02/09 12:09:22;;;;;;;;;;;;;;;17.79;52.93;102450.44;5011605;28;19932;-82
2022/02/09 12:11:49;;;;;;;;;;;;;;;17.79;52.93;102445.22;4982336;28;19914;-82
2022/02/09 12:14:34;;;;;;;;;;;;;;;17.81;52.87;102445.22;4991918;28;19913;-82
2022/02/09 12:19:35;;;;;;;;;;;;;;;17.82;52.67;102441.81;5001694;28;19909;-82
2022/02/09 12:24:31;;;;;;;;;;;;;;;17.84;52.70;102442.72;5004245;28;19894;-80
2022/02/09 12:27:04;;;;;;;;;;;;;;;17.83;52.88;102441.84;4984747;28;19917;-79
2022/02/09 12:29:32;;;;;;;;;;;;;;;17.83;52.79;102443.53;4982921;28;19910;-78
2022/02/09 12:31:57;;;;;;;;;;;;;;;17.83;52.75;102438.34;4999371;28;19933;-79
2022/02/09 12:34:24;;;;;;;;;;;;;;;17.82;52.80;102445.28;4999505;28;20332;-79
2022/02/09 12:36:49;;;;;;;;;;;;;;;17.83;52.78;102439.25;4999941;28;19913;-79
2022/02/09 12:39:18;;;;;;;;;;;;;;;17.83;52.97;102433.13;4986572;28;19944;-82
2022/02/09 12:41:43;;;;;;;;;;;;;;;17.81;52.76;102435.69;5004122;28;19917;-79
2022/02/09 12:44:08;;;;;;;;;;;;;;;17.82;52.86;102436.59;4965989;28;20360;-79
2022/02/09 12:46:37;;;;;;;;;;;;;;;17.82;53.10;102434.88;4985147;28;19910;-80
2022/02/09 12:49:10;;;;;;;;;;;;;;;17.81;52.96;102434.81;4985664;28;19914;-79
2022/02/09 12:51:36;;;;;;;;;;;;;;;17.79;52.98;102429.59;5002125;28;19925;-80
2022/02/09 12:54:01;;;;;;;;;;;;;;;17.81;52.96;102424.38;4984229;28;19917;-80
2022/02/09 12:56:28;;;;;;;;;;;;;;;17.81;52.93;102432.19;4984841;28;19921;-79
2022/02/09 12:58:58;;;;;;;;;;;;;;;17.79;53.01;102432.19;4984527;28;19920;-80
2022/02/09 13:01:23;;;;;;;;;;;;;;;17.79;53.08;102429.59;4984612;28;20388;-80
2022/02/09 13:03:48;;;;;;;;;;;;;;;17.79;52.95;102427.00;4984880;28;19929;-80
2022/02/09 13:06:13;;;;;;;;;;;;;;;17.79;53.16;102427.00;4983693;28;19914;-80
2022/02/09 13:08:39;;;;;;;;;;;;;;;17.79;53.00;102428.69;4984108;28;19913;-80
2022/02/09 13:13:54;;;;;;;;;;;;;;;17.79;53.13;102427.00;4987763;28;19913;-80
2022/02/09 14:03:08;;;;;;;;;;;;;;;17.87;53.01;102420.19;4998937;28;19936;-79
2022/02/09 14:51:58;;;;;;;;;;;;;;;17.80;53.39;102433.94;4979949;28;19922;-79
2022/02/09 14:57:06;;;;;;;;;;;;;;;17.80;53.32;102443.47;4997042;28;19972;-79
2022/02/09 15:02:10;;;;;;;;;;;;;;;17.79;53.32;102445.22;4997224;28;20404;-80
2022/02/09 15:07:25;;;;;;;;;;;;;;;17.80;53.41;102446.97;4984744;28;19914;-82
2022/02/09 15:10:03;;;;;;;;;;;;;;;17.80;53.48;102449.56;4987465;28;19918;-80
2022/02/09 15:12:41;;;;;;;;;;;;;;;17.81;53.24;102446.13;4967779;28;19949;-79
2022/02/09 15:15:35;;;;;;;;;;;;;;;17.81;53.43;102455.63;4981180;28;19913;-80
2022/02/09 15:23:10;;;;;;;;;;;;;;;17.80;53.35;102444.34;4982486;28;19920;-79
2022/02/09 15:25:36;;;;;;;;;;;;;;;17.79;53.26;102441.72;4964282;28;19913;-80
2022/02/09 15:28:03;;;;;;;;;;;;;;;17.79;53.22;102439.09;4997106;28;19916;-80
2022/02/09 15:30:34;;;;;;;;;;;;;;;17.78;53.24;102443.44;4979235;28;20013;-80
2022/02/09 15:33:02;;;;;;;;;;;;;;;17.78;53.22;102443.44;4978727;28;19952;-80
2022/02/09 16:22:22;;;;;;;;;;;;;;;17.69;53.10;102438.97;4989321;28;20344;-80
2022/02/09 16:33:20;;;;;;;;;;;;;;;17.68;53.34;102433.75;5000650;28;19928;-79
2022/02/09 16:46:34;;;;;;;;;;;;;;;17.67;53.17;102435.47;4988528;28;19916;-81
2022/02/09 16:49:05;;;;;;;;;;;;;;;17.69;53.19;102438.97;4993072;28;19977;-83
2022/02/09 16:51:44;;;;;;;;;;;;;;;17.71;53.11;102431.19;4981057;28;19985;-83
2022/02/09 16:57:02;;;;;;;;;;;;;;;17.73;53.17;102446.84;4971581;28;20415;-81
2022/02/09 17:21:09;;;;;;;;;;;;;;;17.82;53.09;102431.41;4991628;28;20369;-81
2022/02/09 17:23:34;;;;;;;;;;;;;;;17.82;53.38;102426.19;4979242;28;19997;-80
2022/02/09 17:25:59;;;;;;;;;;;;;;;17.82;53.08;102420.97;5008282;28;19964;-82
2022/02/09 17:28:26;;;;;;;;;;;;;;;17.82;53.56;102419.25;4967818;28;20288;-81
2022/02/09 17:33:35;;;;;;;;;;;;;;;17.82;53.37;102411.44;5000220;28;20013;-82
2022/02/09 17:36:11;;;;;;;;;;;;;;;17.80;53.28;102415.72;4969402;28;20016;-82
2022/02/09 17:38:43;;;;;;;;;;;;;;;17.80;53.31;102422.66;4967798;28;19924;-83
2022/02/09 17:57:30;;;;;;;;;;;;;;;17.77;53.55;102396.56;4981345;28;19981;-85
2022/02/09 18:00:17;;;;;;;;;;;;;;;17.76;53.76;102398.28;4995532;28;19924;-83
2022/02/09 18:02:47;;;;;;;;;;;;;;;17.77;53.60;102399.16;4966913;29;19961;-81
2022/02/09 18:06:09;;;;;;;;;;;;;;;17.78;53.54;102400.91;4947564;28;19910;-82
2022/02/09 18:08:02;;;;;;;;;;;;;;;17.79;53.75;102393.13;4966649;28;19918;-81
2022/02/09 18:31:36;;;;;;;;;;;;;;;17.94;56.79;102378.59;4983265;28;20368;-81
2022/02/09 18:45:17;;;;;;;;;;;;;;;17.93;57.03;102369.03;4978189;28;19914;-79
2022/02/09 19:04:42;;;;;;;;;;;;;;;17.88;56.88;102363.78;4951429;29;20058;-81
2022/02/09 19:15:45;;;;;;;;;;;;;;;17.77;56.64;102355.78;4957303;29;19961;-83
2022/02/09 19:48:28;;;;;;;;;;;;;;;17.67;56.15;102346.09;4977293;28;19934;-84
2022/02/09 19:57:03;;;;;;;;;;;;;;;17.65;55.98;102340.84;4980866;28;19908;-84
2022/02/09 20:03:14;;;;;;;;;;;;;;;17.65;55.79;102338.25;4943176;29;19918;-83
2022/02/09 20:05:52;;;;;;;;;;;;;;;17.65;55.72;102334.78;4943434;29;19895;-83
2022/02/09 20:08:27;;;;;;;;;;;;;;;17.64;55.74;102333.91;4943544;29;19926;-82
2022/02/09 20:10:59;;;;;;;;;;;;;;;17.64;55.70;102330.44;4938837;29;19918;-81
2022/02/09 20:13:25;;;;;;;;;;;;;;;17.64;55.88;102333.91;4941480;29;19915;-82
2022/02/09 20:15:50;;;;;;;;;;;;;;;17.64;55.75;102333.91;4942470;29;19919;-82
2022/02/09 20:18:34;;;;;;;;;;;;;;;17.64;55.58;102330.44;4927804;29;19919;-83
2022/02/09 20:29:54;;;;;;;;;;;;;;;17.64;55.53;102314.81;4963995;29;19966;-83
2022/02/09 20:32:36;;;;;;;;;;;;;;;17.63;55.46;102305.25;4964082;28;19894;-83
2022/02/09 20:35:19;;;;;;;;;;;;;;;17.63;55.52;102318.25;4980737;28;19914;-84
2022/02/09 20:41:03;;;;;;;;;;;;;;;17.61;55.52;102314.75;4979087;28;19921;-83
2022/02/09 20:46:53;;;;;;;;;;;;;;;17.63;55.63;102318.25;4979506;29;20301;-83
2022/02/09 20:49:45;;;;;;;;;;;;;;;17.61;55.58;102307.81;4977888;28;19978;-83
2022/02/09 20:52:15;;;;;;;;;;;;;;;17.62;55.29;102311.31;4984427;28;19926;-82
2022/02/09 20:54:53;;;;;;;;;;;;;;;17.61;55.38;102299.13;4963633;28;19922;-83
2022/02/09 20:57:20;;;;;;;;;;;;;;;17.61;55.32;102305.22;4998004;28;19973;-83
2022/02/09 21:03:13;;;;;;;;;;;;;;;17.60;55.48;102285.25;4996186;28;20348;-84
2022/02/09 21:18:16;;;;;;;;;;;;;;;17.60;55.26;102280.06;4999453;28;19956;-82
2022/02/09 21:20:41;;;;;;;;;;;;;;;17.60;55.31;102282.66;4991144;28;19910;-83
2022/02/09 21:26:49;;;;;;;;;;;;;;;17.59;55.30;102277.41;4954828;29;20034;-82
2022/02/09 21:56:53;;;;;;;;;;;;;;;17.58;55.05;102267.88;4942461;29;19911;-82
2022/02/09 22:24:48;;;;;;;;;;;;;;;17.57;54.88;102248.78;4943062;29;19954;-86
2022/02/09 22:49:18;;;;;;;;;;;;;;;17.55;54.66;102226.16;5733904;23;19940;-87
2022/02/09 22:54:41;;;;;;;;;;;;;;;17.54;54.47;102224.44;5020117;28;19909;-85
2022/02/09 22:59:50;;;;;;;;;;;;;;;17.54;54.50;102214.03;5115267;23;19928;-87
2022/02/09 23:02:27;;;;;;;;;;;;;;;17.53;54.29;102209.66;5039064;28;19918;-87
2022/02/09 23:10:25;;;;;;;;;;;;;;;17.52;54.43;102205.31;5453838;23;19921;-85
2022/02/09 23:58:37;;;;;;;;;;;;;;;17.49;54.07;102164.53;5016293;28;19921;-79
